°C

Conditions at local time : on    Forecast:

Nearby METAR Reports





EGKA - Shoreham-By-Sea, United Kingdom
Distance from station: ENE 4mi, 6km
Updated: Thu, 18-Aug-2022 7:50pm BST
NOT Current
Few Clouds
Few Clouds
 Wind from WSW
Wind: WSW 18 mph , 30 km/h
Temperature: 19°C
Dew Point: 16°C
Humidity: 83%
Barometer: 1014 hPa
Clouds: Few Clouds
Visibility: 6 miles , 10 km
Cloud details: Few Clouds 549 m
2022/08/18 18:50 EGKA 181850Z 24016KT 9999 FEW018 19/16 Q1014
EGKK - London/Gatwick A, United Kingdom
Distance from station: NNE 24mi, 39km
Updated: Fri, 19-Aug-2022 5:50am BST
Mostly Cloudy
Mostly Cloudy
 Wind from SW
Wind: SW 6 mph , 9 km/h
Temperature: 19°C
Dew Point: 18°C
Humidity: 94%
Barometer: 1013 hPa
Clouds: Mostly Cloudy
Visibility: 6 miles , 9 km
Cloud details: Partly Cloudy 244 m
Mostly Cloudy 640 m
2022/08/19 04:50 EGKK 190450Z 22005KT 9000 SCT008 BKN021 19/18 Q1013
 
EGLF - Farnborough, United Kingdom
Distance from station: NNW 37mi, 59km
Updated: Fri, 19-Aug-2022 5:50am BST
Mostly Cloudy
Mostly Cloudy
 Wind from WSW
Wind: WSW 8 mph , 13 km/h
Temperature: 18°C
Dew Point: 17°C
Humidity: 94%
Barometer: 1014 hPa
Clouds: Mostly Cloudy
Visibility: 6 miles , 10 km
Cloud details: Mostly Cloudy 518 m
Mostly Cloudy 671 m
2022/08/19 04:50 EGLF 190450Z AUTO 25007KT 9999 BKN017/// BKN022/// 18/17 Q1014
EGVO - Odiham Raf, United Kingdom
Distance from station: NW 38mi, 61km
Updated: Fri, 19-Aug-2022 5:50am BST
Mostly Cloudy
Mostly Cloudy
 Wind from WSW
Wind: WSW 8 mph , 13 km/h
Temperature: 18°C
Dew Point: 17°C
Humidity: 94%
Barometer: 1014 hPa
Clouds: Mostly Cloudy
Visibility: 6 miles , 10 km
Cloud details: Partly Cloudy 244 m
Mostly Cloudy 640 m
2022/08/19 04:50 EGVO 190450Z 24007KT 9999 SCT008 BKN021 18/17 Q1014 RMK GRN